»·PEaware :: N61709 KSMX-KBFL

N61709 :: KSMX-KBFL

FLIGHT INFORMATION

Flight Status: Arrived
Operator: Privately registered:
United States
More flights under this callsign
Pilot: Eduardo Elias G. (24838)
Aircraft: CESSNA 182 SKYLANE
(C182)
More flights by this aircraft type
Origin: KSMX Santa Maria Pub/Capt Hancock
United States
Destination: KBFL Meadows
United States
More flights between these airports :: More routes between these airports
Route:
File this flight plan on PilotEdge
Remarks: CAT-5 rating
Altitude:
(Current/Filed)
7,500ft
Speed:
(Current/Filed)
125kts
Departed: 30-Oct-19 08:43 PM
Arrived: 30-Oct-19 09:21 PM
Distance/Time
Traveled:
76nm/0:38
Distance/Time
To Go:
Arrived

Flight Plot

Page will automatically refresh every two minutes.


Map Options




Map Legend


Flown Route
Filed Route
Departure Airport
Arrival Airport
Navaid (VOR, NDB)
Fix

Horizontal Profiles

Position Reports

Time Latitude Longitude Heading Altitude Ground
Speed
30-Oct-19 20:24 34.892777 -120.454349 180 227ft 0kts
30-Oct-19 20:25 34.892771 -120.454349 180 227ft 0kts
30-Oct-19 20:26 34.892765 -120.454349 179 227ft 0kts
30-Oct-19 20:27 34.892759 -120.454349 179 227ft 0kts
30-Oct-19 20:28 34.892753 -120.454349 179 227ft 0kts
30-Oct-19 20:29 34.892747 -120.454349 179 227ft 0kts
30-Oct-19 20:30 34.892741 -120.454349 179 227ft 0kts
30-Oct-19 20:31 34.892733 -120.454349 179 227ft 0kts
30-Oct-19 20:32 34.892725 -120.454348 179 227ft 0kts
30-Oct-19 20:33 34.892717 -120.454348 179 227ft 0kts
30-Oct-19 20:34 34.892412 -120.453831 109 227ft 2kts
30-Oct-19 20:35 34.891719 -120.452912 85 227ft 8kts
30-Oct-19 20:36 34.891818 -120.448728 93 227ft 14kts
30-Oct-19 20:37 34.892228 -120.446539 47 227ft 0kts
30-Oct-19 20:38 34.892235 -120.446530 47 227ft 0kts
30-Oct-19 20:39 34.892242 -120.446521 46 227ft 0kts
30-Oct-19 20:40 34.892246 -120.446516 46 227ft 0kts
30-Oct-19 20:41 34.893774 -120.447094 314 227ft 16kts
30-Oct-19 20:42 34.910207 -120.467134 316 976ft 116kts
30-Oct-19 20:43 34.934151 -120.470114 72 2267ft 76kts
30-Oct-19 20:44 34.947188 -120.442179 71 2909ft 123kts
30-Oct-19 20:45 34.954845 -120.406372 91 3931ft 98kts
30-Oct-19 20:46 34.958011 -120.372613 91 4901ft 99kts
30-Oct-19 20:47 34.959450 -120.339455 91 5896ft 95kts
30-Oct-19 20:48 34.960323 -120.307920 90 6898ft 89kts
30-Oct-19 20:49 34.960216 -120.274885 91 7472ft 108kts
30-Oct-19 20:50 34.969703 -120.234797 65 7528ft 136kts
30-Oct-19 20:51 34.985766 -120.192035 63 7528ft 140kts
30-Oct-19 20:52 35.003336 -120.149120 61 7530ft 147kts
30-Oct-19 20:53 35.023463 -120.102824 61 7531ft 158kts
30-Oct-19 20:54 35.043845 -120.054755 63 7527ft 158kts
30-Oct-19 20:55 35.065027 -120.008442 64 7527ft 155kts
30-Oct-19 20:56 35.086740 -119.962718 64 7525ft 154kts
30-Oct-19 20:57 35.108303 -119.917651 64 7528ft 153kts
30-Oct-19 20:58 35.129841 -119.872599 64 7529ft 153kts
30-Oct-19 20:59 35.151428 -119.827445 64 7533ft 155kts
30-Oct-19 21:00 35.173252 -119.781355 64 7532ft 156kts
30-Oct-19 21:01 35.194067 -119.738394 64 7524ft 136kts
30-Oct-19 21:02 35.213450 -119.699692 64 7528ft 131kts
30-Oct-19 21:03 35.232460 -119.661981 64 7532ft 131kts
30-Oct-19 21:04 35.251775 -119.623589 64 7529ft 133kts
30-Oct-19 21:05 35.269955 -119.585815 64 7535ft 126kts
30-Oct-19 21:06 35.287538 -119.548895 64 7446ft 128kts
30-Oct-19 21:07 35.306938 -119.507880 64 7388ft 143kts
30-Oct-19 21:08 35.326579 -119.465876 64 7479ft 143kts
30-Oct-19 21:09 35.346510 -119.423052 64 7482ft 145kts
30-Oct-19 21:10 35.364815 -119.385289 64 6943ft 132kts
30-Oct-19 21:11 35.385674 -119.343226 64 6301ft 151kts
30-Oct-19 21:12 35.405554 -119.297543 71 5601ft 152kts
30-Oct-19 21:13 35.423531 -119.250014 71 4903ft 154kts
30-Oct-19 21:14 35.436621 -119.201997 81 4168ft 145kts
30-Oct-19 21:15 35.445025 -119.161861 83 3434ft 106kts
30-Oct-19 21:16 35.453043 -119.131060 80 2903ft 88kts
30-Oct-19 21:17 35.460042 -119.104233 102 2062ft 70kts
30-Oct-19 21:18 35.455575 -119.082851 130 846ft 57kts
30-Oct-19 21:19 35.444847 -119.069446 133 524ft 49kts
30-Oct-19 21:20 35.439967 -119.063439 86 510ft 0kts
30-Oct-19 21:21 35.440913 -119.063266 6 510ft 0kts
30-Oct-19 21:22 35.441706 -119.062939 84 510ft 6kts
30-Oct-19 21:23 35.437692 -119.058351 134 510ft 25kts
30-Oct-19 21:24 35.432845 -119.052512 138 510ft 25kts
30-Oct-19 21:25 35.427994 -119.046705 112 510ft 13kts
30-Oct-19 21:26 35.428371 -119.043886 25 510ft 0kts
30-Oct-19 21:27 35.428372 -119.043886 25 510ft 0kts

Navigation Log

Ident Type
Flight plan parsing failed, navigation log unavailable